Frio Chikuma — 3FWG8 — position and weather

sailwx.info

Track history (hours):
 
Tides and Currents Weather Stations Pressure Air Temp Water Temp Dewpoint Dewpoint Depression Visibility Wind Speed Wind Dir Waves Ship Positions

Frio Chikuma

Last reported at 2016-May-22 04:07 UTC. Time now 2016-May-25 03:24 UTC.
Position N 35°06' E 029°18'.

Length 135 m; draft 4.9 m.

Type: Cargo ship. MMSI: 353306000.

Date/timePositionNaut miles runAvg speedWind from/ knotsBaromVisibWave heightAir tempDewpointWater temp
2016-May-22 04:07N 35°06' E 029°18'4 1.2
2016-May-22 00:33N 35°02' E 029°19'13 2.5
2016-May-21 19:33N 35°14' E 029°21'  
2016-May-16 17:25N 35°48' E 028°58'1315.0
2016-May-16 16:33N 35°47' E 028°42'1914.9
2016-May-16 15:18N 35°47' E 028°19'1314.8
2016-May-16 14:24N 35°46' E 028°02'64813.5
2016-May-14 14:29N 36°23' E 014°42'1515.7
2016-May-14 13:33N 36°27' E 014°24'1615.6
2016-May-14 12:33N 36°31' E 014°06'1615.7
2016-May-14 11:33N 36°35' E 013°47'  
Track history (hours):
 
Tides and Currents Weather Stations Pressure Air Temp Water Temp Dewpoint Dewpoint Depression Visibility Wind Speed Wind Dir Waves Ship Positions

Frio Chikuma

Last reported at 2016-May-22 04:07 UTC. Time now 2016-May-25 03:24 UTC.
Position N 35°06' E 029°18'.

Length 135 m; draft 4.9 m.

Type: Cargo ship. MMSI: 353306000.

Date/timePositionNaut miles runAvg speedWind from/ knotsBaromVisibWave heightAir tempDewpointWater temp
2016-May-22 04:07N 35°06' E 029°18'4 1.2
2016-May-22 00:33N 35°02' E 029°19'13 2.5
2016-May-21 19:33N 35°14' E 029°21'  
2016-May-16 17:25N 35°48' E 028°58'1315.0
2016-May-16 16:33N 35°47' E 028°42'1914.9
2016-May-16 15:18N 35°47' E 028°19'1314.8
2016-May-16 14:24N 35°46' E 028°02'64813.5
2016-May-14 14:29N 36°23' E 014°42'1515.7
2016-May-14 13:33N 36°27' E 014°24'1615.6
2016-May-14 12:33N 36°31' E 014°06'1615.7
2016-May-14 11:33N 36°35' E 013°47'  

Dump ship's entire track history